sensor_id;sensor_type;location;lat;lon;timestamp;pressure;altitude;pressure_sealevel;temperature;humidity
4972;BME280;2501;51.214;6.768;2022-09-09T00:01:25;100298.19;;;16.76;100.00
4972;BME280;2501;51.214;6.768;2022-09-09T00:04:00;100291.97;;;16.84;100.00
4972;BME280;2501;51.214;6.768;2022-09-09T00:06:32;100298.53;;;16.78;100.00
4972;BME280;2501;51.214;6.768;2022-09-09T00:09:06;100297.06;;;16.73;100.00
4972;BME280;2501;51.214;6.768;2022-09-09T00:11:40;100301.06;;;16.72;100.00
4972;BME280;2501;51.214;6.768;2022-09-09T00:14:18;100297.56;;;16.68;100.00
4972;BME280;2501;51.214;6.768;2022-09-09T00:16:56;100290.31;;;16.71;100.00
4972;BME280;2501;51.214;6.768;2022-09-09T00:19:33;100289.78;;;16.60;100.00
4972;BME280;2501;51.214;6.768;2022-09-09T00:22:15;100287.97;;;16.69;100.00
4972;BME280;2501;51.214;6.768;2022-09-09T00:24:45;100281.41;;;16.76;100.00
4972;BME280;2501;51.214;6.768;2022-09-09T00:27:23;100287.69;;;16.80;100.00
4972;BME280;2501;51.214;6.768;2022-09-09T00:29:58;100287.59;;;16.83;100.00
4972;BME280;2501;51.214;6.768;2022-09-09T00:32:33;100287.41;;;16.90;100.00
4972;BME280;2501;51.214;6.768;2022-09-09T00:35:04;100286.97;;;16.92;100.00
4972;BME280;2501;51.214;6.768;2022-09-09T00:37:42;100286.44;;;16.97;100.00
4972;BME280;2501;51.214;6.768;2022-09-09T00:40:22;100287.75;;;16.92;100.00
4972;BME280;2501;51.214;6.768;2022-09-09T00:42:59;100283.88;;;17.02;100.00
4972;BME280;2501;51.214;6.768;2022-09-09T00:45:45;100273.69;;;16.96;100.00
4972;BME280;2501;51.214;6.768;2022-09-09T00:48:22;100274.56;;;16.93;100.00
4972;BME280;2501;51.214;6.768;2022-09-09T00:51:00;100274.81;;;16.98;100.00
4972;BME280;2501;51.214;6.768;2022-09-09T00:53:38;100268.63;;;16.91;100.00
4972;BME280;2501;51.214;6.768;2022-09-09T00:56:13;100282.50;;;16.94;100.00
4972;BME280;2501;51.214;6.768;2022-09-09T00:58:43;100277.28;;;16.96;100.00
4972;BME280;2501;51.214;6.768;2022-09-09T01:01:17;100274.47;;;16.96;100.00
4972;BME280;2501;51.214;6.768;2022-09-09T01:03:53;100284.69;;;16.87;100.00
4972;BME280;2501;51.214;6.768;2022-09-09T01:06:29;100280.94;;;16.93;100.00
4972;BME280;2501;51.214;6.768;2022-09-09T01:09:08;100284.28;;;16.88;100.00
4972;BME280;2501;51.214;6.768;2022-09-09T01:11:47;100280.31;;;16.86;100.00
4972;BME280;2501;51.214;6.768;2022-09-09T01:14:29;100279.00;;;16.90;100.00
4972;BME280;2501;51.214;6.768;2022-09-09T01:17:04;100273.00;;;16.92;100.00
4972;BME280;2501;51.214;6.768;2022-09-09T01:19:45;100275.53;;;16.86;100.00
4972;BME280;2501;51.214;6.768;2022-09-09T01:22:23;100276.22;;;16.90;100.00
4972;BME280;2501;51.214;6.768;2022-09-09T01:25:20;100270.38;;;16.85;100.00
4972;BME280;2501;51.214;6.768;2022-09-09T01:27:55;100281.38;;;16.92;100.00
4972;BME280;2501;51.214;6.768;2022-09-09T01:30:24;100274.56;;;16.93;100.00
4972;BME280;2501;51.214;6.768;2022-09-09T01:32:55;100277.91;;;16.88;100.00
4972;BME280;2501;51.214;6.768;2022-09-09T01:35:39;100271.44;;;16.75;100.00
4972;BME280;2501;51.214;6.768;2022-09-09T01:38:10;100271.69;;;16.80;100.00
4972;BME280;2501;51.214;6.768;2022-09-09T01:40:39;100265.22;;;16.83;100.00
4972;BME280;2501;51.214;6.768;2022-09-09T01:43:10;100263.22;;;16.84;100.00
4972;BME280;2501;51.214;6.768;2022-09-09T01:45:39;100262.88;;;16.82;100.00
4972;BME280;2501;51.214;6.768;2022-09-09T01:48:09;100257.44;;;16.91;100.00
4972;BME280;2501;51.214;6.768;2022-09-09T01:50:38;100255.16;;;16.86;100.00
4972;BME280;2501;51.214;6.768;2022-09-09T01:53:06;100254.94;;;16.80;100.00
4972;BME280;2501;51.214;6.768;2022-09-09T01:55:38;100262.34;;;16.87;100.00
4972;BME280;2501;51.214;6.768;2022-09-09T01:58:18;100259.53;;;16.87;100.00
4972;BME280;2501;51.214;6.768;2022-09-09T02:00:53;100259.28;;;16.97;100.00
4972;BME280;2501;51.214;6.768;2022-09-09T02:03:27;100268.59;;;17.07;100.00
4972;BME280;2501;51.214;6.768;2022-09-09T02:06:01;100258.97;;;17.08;100.00
4972;BME280;2501;51.214;6.768;2022-09-09T02:08:36;100255.03;;;17.06;100.00
4972;BME280;2501;51.214;6.768;2022-09-09T02:11:12;100263.34;;;17.09;100.00
4972;BME280;2501;51.214;6.768;2022-09-09T02:13:46;100264.47;;;17.12;100.00
4972;BME280;2501;51.214;6.768;2022-09-09T02:16:20;100265.59;;;17.14;100.00
4972;BME280;2501;51.214;6.768;2022-09-09T02:18:51;100269.69;;;17.10;100.00
4972;BME280;2501;51.214;6.768;2022-09-09T02:21:23;100261.78;;;17.08;100.00
4972;BME280;2501;51.214;6.768;2022-09-09T02:23:54;100263.78;;;17.08;100.00
4972;BME280;2501;51.214;6.768;2022-09-09T02:26:25;100255.34;;;17.24;100.00
4972;BME280;2501;51.214;6.768;2022-09-09T02:28:58;100259.78;;;17.21;100.00
4972;BME280;2501;51.214;6.768;2022-09-09T02:31:30;100264.38;;;17.15;100.00
4972;BME280;2501;51.214;6.768;2022-09-09T02:34:01;100263.03;;;17.20;100.00
4972;BME280;2501;51.214;6.768;2022-09-09T02:36:33;100261.38;;;17.22;100.00
4972;BME280;2501;51.214;6.768;2022-09-09T02:39:07;100259.78;;;17.21;100.00
4972;BME280;2501;51.214;6.768;2022-09-09T02:41:38;100261.81;;;17.21;100.00
4972;BME280;2501;51.214;6.768;2022-09-09T02:44:12;100252.78;;;17.29;100.00
4972;BME280;2501;51.214;6.768;2022-09-09T02:47:13;100255.66;;;17.26;100.00
4972;BME280;2501;51.214;6.768;2022-09-09T02:49:54;100261.16;;;17.29;100.00
4972;BME280;2501;51.214;6.768;2022-09-09T02:52:32;100256.03;;;17.28;100.00
4972;BME280;2501;51.214;6.768;2022-09-09T02:55:08;100254.69;;;17.32;100.00
4972;BME280;2501;51.214;6.768;2022-09-09T02:57:40;100250.44;;;17.28;100.00
4972;BME280;2501;51.214;6.768;2022-09-09T03:00:15;100253.75;;;17.23;100.00
4972;BME280;2501;51.214;6.768;2022-09-09T03:02:43;100247.63;;;17.28;100.00
4972;BME280;2501;51.214;6.768;2022-09-09T03:05:12;100248.53;;;17.25;100.00
4972;BME280;2501;51.214;6.768;2022-09-09T03:07:41;100247.38;;;17.22;100.00
4972;BME280;2501;51.214;6.768;2022-09-09T03:10:09;100243.78;;;17.22;100.00
4972;BME280;2501;51.214;6.768;2022-09-09T03:12:38;100242.81;;;17.28;100.00
4972;BME280;2501;51.214;6.768;2022-09-09T03:15:10;100247.38;;;17.22;100.00
4972;BME280;2501;51.214;6.768;2022-09-09T03:17:42;100243.63;;;17.29;100.00
4972;BME280;2501;51.214;6.768;2022-09-09T03:20:11;100246.41;;;17.29;100.00
4972;BME280;2501;51.214;6.768;2022-09-09T03:22:39;100244.03;;;17.27;100.00
4972;BME280;2501;51.214;6.768;2022-09-09T03:25:09;100242.03;;;17.28;100.00
4972;BME280;2501;51.214;6.768;2022-09-09T03:27:37;100242.13;;;17.24;100.00
4972;BME280;2501;51.214;6.768;2022-09-09T03:30:07;100244.59;;;17.22;100.00
4972;BME280;2501;51.214;6.768;2022-09-09T03:32:36;100240.47;;;17.27;100.00
4972;BME280;2501;51.214;6.768;2022-09-09T03:35:09;100244.53;;;17.38;100.00
4972;BME280;2501;51.214;6.768;2022-09-09T03:37:37;100240.72;;;17.32;100.00
4972;BME280;2501;51.214;6.768;2022-09-09T03:40:08;100242.72;;;17.32;100.00
4972;BME280;2501;51.214;6.768;2022-09-09T03:42:38;100242.16;;;17.37;100.00
4972;BME280;2501;51.214;6.768;2022-09-09T03:45:09;100245.16;;;17.30;100.00
4972;BME280;2501;51.214;6.768;2022-09-09T03:47:37;100252.44;;;17.27;100.00
4972;BME280;2501;51.214;6.768;2022-09-09T03:50:09;100240.56;;;17.23;100.00
4972;BME280;2501;51.214;6.768;2022-09-09T03:52:39;100234.19;;;17.23;100.00
4972;BME280;2501;51.214;6.768;2022-09-09T03:55:09;100244.25;;;17.20;100.00
4972;BME280;2501;51.214;6.768;2022-09-09T03:57:37;100239.53;;;17.17;100.00
4972;BME280;2501;51.214;6.768;2022-09-09T04:00:08;100240.66;;;17.20;100.00
4972;BME280;2501;51.214;6.768;2022-09-09T04:02:36;100242.56;;;17.23;100.00
4972;BME280;2501;51.214;6.768;2022-09-09T04:05:08;100249.66;;;17.27;100.00
4972;BME280;2501;51.214;6.768;2022-09-09T04:07:36;100243.34;;;17.23;100.00
4972;BME280;2501;51.214;6.768;2022-09-09T04:10:06;100241.25;;;17.27;100.00
4972;BME280;2501;51.214;6.768;2022-09-09T04:12:35;100235.50;;;17.18;100.00
4972;BME280;2501;51.214;6.768;2022-09-09T04:15:05;100246.59;;;17.22;100.00
4972;BME280;2501;51.214;6.768;2022-09-09T04:17:33;100245.72;;;17.25;100.00
4972;BME280;2501;51.214;6.768;2022-09-09T04:20:02;100251.31;;;17.25;100.00
4972;BME280;2501;51.214;6.768;2022-09-09T04:22:34;100251.41;;;17.21;100.00
4972;BME280;2501;51.214;6.768;2022-09-09T04:25:05;100248.97;;;17.23;100.00
4972;BME280;2501;51.214;6.768;2022-09-09T04:27:33;100242.03;;;17.28;100.00
4972;BME280;2501;51.214;6.768;2022-09-09T04:30:02;100241.25;;;17.27;100.00
4972;BME280;2501;51.214;6.768;2022-09-09T04:32:32;100239.34;;;17.37;100.00
4972;BME280;2501;51.214;6.768;2022-09-09T04:35:01;100246.22;;;17.36;100.00
4972;BME280;2501;51.214;6.768;2022-09-09T04:37:29;100246.09;;;17.39;100.00
4972;BME280;2501;51.214;6.768;2022-09-09T04:40:01;100241.03;;;17.34;100.00
4972;BME280;2501;51.214;6.768;2022-09-09T04:42:30;100237.03;;;17.35;100.00
4972;BME280;2501;51.214;6.768;2022-09-09T04:44:58;100241.63;;;17.42;100.00
4972;BME280;2501;51.214;6.768;2022-09-09T04:47:26;100240.81;;;17.41;100.00
4972;BME280;2501;51.214;6.768;2022-09-09T04:49:55;100247.91;;;17.46;100.00
4972;BME280;2501;51.214;6.768;2022-09-09T04:52:23;100244.78;;;17.44;100.00
4972;BME280;2501;51.214;6.768;2022-09-09T04:54:52;100245.78;;;17.50;100.00
4972;BME280;2501;51.214;6.768;2022-09-09T04:57:23;100246.69;;;17.47;100.00
4972;BME280;2501;51.214;6.768;2022-09-09T04:59:51;100250.00;;;17.71;100.00
4972;BME280;2501;51.214;6.768;2022-09-09T05:02:20;100254.81;;;17.70;100.00
4972;BME280;2501;51.214;6.768;2022-09-09T05:04:48;100251.44;;;17.63;100.00
4972;BME280;2501;51.214;6.768;2022-09-09T05:07:17;100250.00;;;17.71;100.00
4972;BME280;2501;51.214;6.768;2022-09-09T05:09:45;100255.03;;;17.63;100.00
4972;BME280;2501;51.214;6.768;2022-09-09T05:12:14;100253.22;;;17.69;100.00
4972;BME280;2501;51.214;6.768;2022-09-09T05:14:46;100251.00;;;17.77;100.00
4972;BME280;2501;51.214;6.768;2022-09-09T05:17:14;100252.25;;;17.76;100.00
4972;BME280;2501;51.214;6.768;2022-09-09T05:19:43;100253.91;;;17.73;100.00
4972;BME280;2501;51.214;6.768;2022-09-09T05:22:11;100252.69;;;17.74;100.00
4972;BME280;2501;51.214;6.768;2022-09-09T05:24:40;100247.63;;;17.69;100.00
4972;BME280;2501;51.214;6.768;2022-09-09T05:27:09;100244.84;;;17.82;100.00
4972;BME280;2501;51.214;6.768;2022-09-09T05:29:38;100242.50;;;17.80;100.00
4972;BME280;2501;51.214;6.768;2022-09-09T05:32:09;100235.44;;;17.88;100.00
4972;BME280;2501;51.214;6.768;2022-09-09T05:34:39;100235.00;;;17.90;100.00
4972;BME280;2501;51.214;6.768;2022-09-09T05:37:07;100242.06;;;17.82;100.00
4972;BME280;2501;51.214;6.768;2022-09-09T05:39:35;100249.13;;;17.99;100.00
4972;BME280;2501;51.214;6.768;2022-09-09T05:42:05;100240.59;;;17.90;100.00
4972;BME280;2501;51.214;6.768;2022-09-09T05:44:33;100243.41;;;17.90;100.00
4972;BME280;2501;51.214;6.768;2022-09-09T05:47:02;100245.06;;;18.00;100.00
4972;BME280;2501;51.214;6.768;2022-09-09T05:49:33;100244.19;;;18.16;100.00
4972;BME280;2501;51.214;6.768;2022-09-09T05:52:02;100244.06;;;18.19;100.00
4972;BME280;2501;51.214;6.768;2022-09-09T05:54:31;100247.66;;;18.20;100.00
4972;BME280;2501;51.214;6.768;2022-09-09T05:57:00;100254.28;;;18.13;100.00
4972;BME280;2501;51.214;6.768;2022-09-09T05:59:29;100251.47;;;18.13;100.00
4972;BME280;2501;51.214;6.768;2022-09-09T06:01:57;100258.84;;;18.20;100.00
4972;BME280;2501;51.214;6.768;2022-09-09T06:04:26;100256.53;;;18.18;100.00
4972;BME280;2501;51.214;6.768;2022-09-09T06:06:58;100261.34;;;18.18;100.00
4972;BME280;2501;51.214;6.768;2022-09-09T06:09:27;100261.56;;;18.11;100.00
4972;BME280;2501;51.214;6.768;2022-09-09T06:11:55;100263.13;;;18.24;100.00
4972;BME280;2501;51.214;6.768;2022-09-09T06:14:24;100256.84;;;18.20;100.00
4972;BME280;2501;51.214;6.768;2022-09-09T06:16:53;100261.91;;;18.25;100.00
4972;BME280;2501;51.214;6.768;2022-09-09T06:19:22;100264.91;;;18.43;100.00
4972;BME280;2501;51.214;6.768;2022-09-09T06:21:52;100261.53;;;18.36;100.00
4972;BME280;2501;51.214;6.768;2022-09-09T06:24:23;100267.63;;;18.34;100.00
4972;BME280;2501;51.214;6.768;2022-09-09T06:26:51;100271.41;;;18.28;100.00
4972;BME280;2501;51.214;6.768;2022-09-09T06:29:20;100269.50;;;18.12;100.00
4972;BME280;2501;51.214;6.768;2022-09-09T06:31:48;100267.25;;;18.20;100.00
4972;BME280;2501;51.214;6.768;2022-09-09T06:34:16;100275.13;;;18.12;100.00
4972;BME280;2501;51.214;6.768;2022-09-09T06:36:45;100273.66;;;18.08;100.00
4972;BME280;2501;51.214;6.768;2022-09-09T06:39:13;100262.13;;;18.06;100.00
4972;BME280;2501;51.214;6.768;2022-09-09T06:41:45;100266.72;;;18.12;100.00
4972;BME280;2501;51.214;6.768;2022-09-09T06:44:13;100271.31;;;18.06;100.00
4972;BME280;2501;51.214;6.768;2022-09-09T06:46:42;100265.50;;;18.26;100.00
4972;BME280;2501;51.214;6.768;2022-09-09T06:49:13;100267.94;;;18.24;100.00
4972;BME280;2501;51.214;6.768;2022-09-09T06:51:41;100273.78;;;18.29;100.00
4972;BME280;2501;51.214;6.768;2022-09-09T06:54:11;100274.22;;;18.28;100.00
4972;BME280;2501;51.214;6.768;2022-09-09T06:56:41;100278.25;;;18.39;100.00
4972;BME280;2501;51.214;6.768;2022-09-09T06:59:13;100278.25;;;18.65;100.00
4972;BME280;2501;51.214;6.768;2022-09-09T07:01:42;100277.69;;;18.70;100.00
4972;BME280;2501;51.214;6.768;2022-09-09T07:04:12;100280.69;;;18.75;100.00
4972;BME280;2501;51.214;6.768;2022-09-09T07:06:41;100293.34;;;18.80;100.00
4972;BME280;2501;51.214;6.768;2022-09-09T07:09:13;100283.84;;;18.65;100.00
4972;BME280;2501;51.214;6.768;2022-09-09T07:11:43;100291.91;;;18.75;100.00
4972;BME280;2501;51.214;6.768;2022-09-09T07:14:15;100290.81;;;18.73;100.00
4972;BME280;2501;51.214;6.768;2022-09-09T07:16:44;100298.63;;;18.78;100.00
4972;BME280;2501;51.214;6.768;2022-09-09T07:19:13;100302.56;;;19.15;100.00
4972;BME280;2501;51.214;6.768;2022-09-09T07:21:43;100303.09;;;19.22;100.00
4972;BME280;2501;51.214;6.768;2022-09-09T07:24:11;100305.16;;;19.09;100.00
4972;BME280;2501;51.214;6.768;2022-09-09T07:26:40;100311.84;;;18.90;100.00
4972;BME280;2501;51.214;6.768;2022-09-09T07:29:09;100300.81;;;19.08;100.00
4972;BME280;2501;51.214;6.768;2022-09-09T07:31:41;100317.53;;;18.99;100.00
4972;BME280;2501;51.214;6.768;2022-09-09T07:34:10;100316.06;;;19.07;100.00
4972;BME280;2501;51.214;6.768;2022-09-09T07:36:39;100321.91;;;19.13;100.00
4972;BME280;2501;51.214;6.768;2022-09-09T07:39:09;100323.81;;;19.03;100.00
4972;BME280;2501;51.214;6.768;2022-09-09T07:41:40;100321.34;;;19.05;100.00
4972;BME280;2501;51.214;6.768;2022-09-09T07:44:11;100328.75;;;19.33;100.00
4972;BME280;2501;51.214;6.768;2022-09-09T07:46:42;100341.94;;;19.24;100.00
4972;BME280;2501;51.214;6.768;2022-09-09T07:49:11;100338.59;;;19.16;100.00
4972;BME280;2501;51.214;6.768;2022-09-09T07:51:42;100337.25;;;19.21;100.00
4972;BME280;2501;51.214;6.768;2022-09-09T07:54:12;100338.53;;;19.29;100.00
4972;BME280;2501;51.214;6.768;2022-09-09T07:56:41;100337.69;;;19.19;100.00
4972;BME280;2501;51.214;6.768;2022-09-09T07:59:10;100341.88;;;19.02;100.00
4972;BME280;2501;51.214;6.768;2022-09-09T08:01:43;100354.66;;;19.16;100.00
4972;BME280;2501;51.214;6.768;2022-09-09T08:04:15;100343.56;;;19.47;100.00
4972;BME280;2501;51.214;6.768;2022-09-09T08:06:46;100343.69;;;19.65;100.00
4972;BME280;2501;51.214;6.768;2022-09-09T08:09:15;100346.66;;;19.61;100.00
4972;BME280;2501;51.214;6.768;2022-09-09T08:11:44;100349.44;;;19.61;100.00
4972;BME280;2501;51.214;6.768;2022-09-09T08:14:12;100344.53;;;19.53;100.00
4972;BME280;2501;51.214;6.768;2022-09-09T08:16:45;100341.09;;;19.70;100.00
4972;BME280;2501;51.214;6.768;2022-09-09T08:19:14;100353.31;;;19.76;100.00
4972;BME280;2501;51.214;6.768;2022-09-09T08:21:44;100352.78;;;19.69;100.00
4972;BME280;2501;51.214;6.768;2022-09-09T08:24:14;100353.16;;;19.80;100.00
4972;BME280;2501;51.214;6.768;2022-09-09T08:26:46;100353.75;;;19.97;100.00
4972;BME280;2501;51.214;6.768;2022-09-09T08:29:15;100351.78;;;20.06;100.00
4972;BME280;2501;51.214;6.768;2022-09-09T08:31:48;100358.06;;;20.10;100.00
4972;BME280;2501;51.214;6.768;2022-09-09T08:34:18;100348.38;;;20.11;100.00
4972;BME280;2501;51.214;6.768;2022-09-09T08:36:49;100354.25;;;20.04;100.00
4972;BME280;2501;51.214;6.768;2022-09-09T08:39:19;100358.44;;;20.21;100.00
4972;BME280;2501;51.214;6.768;2022-09-09T08:42:09;100358.94;;;20.60;100.00
4972;BME280;2501;51.214;6.768;2022-09-09T08:44:54;100363.53;;;20.75;100.00
4972;BME280;2501;51.214;6.768;2022-09-09T08:47:36;100361.50;;;20.36;100.00
4972;BME280;2501;51.214;6.768;2022-09-09T08:50:18;100365.88;;;20.37;100.00
4972;BME280;2501;51.214;6.768;2022-09-09T08:52:54;100362.34;;;20.46;100.00
4972;BME280;2501;51.214;6.768;2022-09-09T08:55:35;100358.09;;;20.41;100.00
4972;BME280;2501;51.214;6.768;2022-09-09T08:58:12;100366.00;;;20.64;100.00
4972;BME280;2501;51.214;6.768;2022-09-09T09:00:53;100361.78;;;20.29;100.00
4972;BME280;2501;51.214;6.768;2022-09-09T09:03:37;100358.19;;;20.28;100.00
4972;BME280;2501;51.214;6.768;2022-09-09T09:06:23;100365.28;;;20.20;100.00
4972;BME280;2501;51.214;6.768;2022-09-09T09:09:00;100373.03;;;20.29;100.00
4972;BME280;2501;51.214;6.768;2022-09-09T09:11:35;100374.38;;;20.24;100.00
4972;BME280;2501;51.214;6.768;2022-09-09T09:14:10;100368.88;;;20.21;100.00
4972;BME280;2501;51.214;6.768;2022-09-09T09:16:43;100370.25;;;20.16;100.00
4972;BME280;2501;51.214;6.768;2022-09-09T09:19:19;100374.31;;;20.15;100.00
4972;BME280;2501;51.214;6.768;2022-09-09T09:21:52;100371.69;;;20.21;100.00
4972;BME280;2501;51.214;6.768;2022-09-09T09:24:27;100380.28;;;20.17;100.00
4972;BME280;2501;51.214;6.768;2022-09-09T09:27:00;100368.44;;;20.22;100.00
4972;BME280;2501;51.214;6.768;2022-09-09T09:29:36;100383.25;;;20.23;100.00
4972;BME280;2501;51.214;6.768;2022-09-09T09:32:10;100382.91;;;20.34;100.00
4972;BME280;2501;51.214;6.768;2022-09-09T09:34:48;100381.94;;;20.67;100.00
4972;BME280;2501;51.214;6.768;2022-09-09T09:37:26;100376.66;;;20.69;100.00
4972;BME280;2501;51.214;6.768;2022-09-09T09:40:06;100378.84;;;20.74;100.00
4972;BME280;2501;51.214;6.768;2022-09-09T09:42:35;100374.00;;;20.75;100.00
4972;BME280;2501;51.214;6.768;2022-09-09T09:45:17;100381.50;;;20.69;100.00
4972;BME280;2501;51.214;6.768;2022-09-09T09:47:58;100382.19;;;20.51;100.00
4972;BME280;2501;51.214;6.768;2022-09-09T09:50:30;100384.97;;;20.82;100.00
4972;BME280;2501;51.214;6.768;2022-09-09T09:53:02;100379.06;;;20.89;100.00
4972;BME280;2501;51.214;6.768;2022-09-09T09:55:33;100377.53;;;20.97;100.00
4972;BME280;2501;51.214;6.768;2022-09-09T09:58:04;100369.97;;;20.85;100.00
4972;BME280;2501;51.214;6.768;2022-09-09T10:00:33;100374.19;;;20.81;100.00
4972;BME280;2501;51.214;6.768;2022-09-09T10:03:14;100368.91;;;20.92;100.00
4972;BME280;2501;51.214;6.768;2022-09-09T10:05:51;100370.22;;;21.18;100.00
4972;BME280;2501;51.214;6.768;2022-09-09T10:08:20;100365.97;;;21.13;100.00
4972;BME280;2501;51.214;6.768;2022-09-09T10:10:57;100368.81;;;21.22;100.00
4972;BME280;2501;51.214;6.768;2022-09-09T10:13:33;100372.75;;;21.52;100.00
4972;BME280;2501;51.214;6.768;2022-09-09T10:16:17;100359.00;;;21.36;100.00
4972;BME280;2501;51.214;6.768;2022-09-09T10:18:59;100367.09;;;21.52;100.00
4972;BME280;2501;51.214;6.768;2022-09-09T10:21:52;100365.09;;;21.62;100.00
4972;BME280;2501;51.214;6.768;2022-09-09T10:27:30;100365.72;;;21.66;100.00
4972;BME280;2501;51.214;6.768;2022-09-09T10:30:10;100359.59;;;21.31;100.00
4972;BME280;2501;51.214;6.768;2022-09-09T10:32:45;100366.75;;;21.05;100.00
4972;BME280;2501;51.214;6.768;2022-09-09T10:35:25;100356.81;;;20.73;100.00
4972;BME280;2501;51.214;6.768;2022-09-09T10:38:14;100355.75;;;20.89;100.00
4972;BME280;2501;51.214;6.768;2022-09-09T10:40:58;100359.34;;;20.98;100.00
4972;BME280;2501;51.214;6.768;2022-09-09T10:43:39;100354.06;;;21.00;100.00
4972;BME280;2501;51.214;6.768;2022-09-09T10:46:17;100349.50;;;20.94;100.00
4972;BME280;2501;51.214;6.768;2022-09-09T10:49:06;100351.19;;;20.82;100.00
4972;BME280;2501;51.214;6.768;2022-09-09T10:51:42;100357.78;;;20.88;100.00
4972;BME280;2501;51.214;6.768;2022-09-09T10:54:28;100361.78;;;21.27;100.00
4972;BME280;2501;51.214;6.768;2022-09-09T10:57:00;100354.75;;;21.22;100.00
4972;BME280;2501;51.214;6.768;2022-09-09T10:59:33;100350.16;;;21.07;100.00
4972;BME280;2501;51.214;6.768;2022-09-09T11:02:12;100348.50;;;21.46;100.00
4972;BME280;2501;51.214;6.768;2022-09-09T11:04:45;100343.97;;;21.39;100.00
4972;BME280;2501;51.214;6.768;2022-09-09T11:07:24;100341.44;;;21.23;100.00
4972;BME280;2501;51.214;6.768;2022-09-09T11:10:01;100343.81;;;21.25;100.00
4972;BME280;2501;51.214;6.768;2022-09-09T11:12:34;100341.13;;;21.12;100.00
4972;BME280;2501;51.214;6.768;2022-09-09T11:15:08;100348.41;;;20.91;100.00
4972;BME280;2501;51.214;6.768;2022-09-09T11:17:44;100343.88;;;21.03;100.00
4972;BME280;2501;51.214;6.768;2022-09-09T11:20:15;100347.66;;;21.09;100.00
4972;BME280;2501;51.214;6.768;2022-09-09T11:22:47;100351.88;;;21.04;100.00
4972;BME280;2501;51.214;6.768;2022-09-09T11:25:23;100361.78;;;21.27;100.00
4972;BME280;2501;51.214;6.768;2022-09-09T11:28:06;100362.72;;;20.66;100.00
4972;BME280;2501;51.214;6.768;2022-09-09T11:30:45;100363.78;;;20.59;100.00
4972;BME280;2501;51.214;6.768;2022-09-09T11:33:47;100353.72;;;20.98;100.00
4972;BME280;2501;51.214;6.768;2022-09-09T11:36:39;100363.66;;;21.57;100.00
4972;BME280;2501;51.214;6.768;2022-09-09T11:39:36;100352.91;;;21.56;100.00
4972;BME280;2501;51.214;6.768;2022-09-09T11:42:22;100356.25;;;20.96;100.00
4972;BME280;2501;51.214;6.768;2022-09-09T11:44:52;100350.75;;;21.02;100.00
4972;BME280;2501;51.214;6.768;2022-09-09T11:47:24;100356.28;;;21.14;100.00
4972;BME280;2501;51.214;6.768;2022-09-09T11:50:06;100347.63;;;20.91;100.00
4972;BME280;2501;51.214;6.768;2022-09-09T11:52:39;100353.75;;;21.07;100.00
4972;BME280;2501;51.214;6.768;2022-09-09T11:55:10;100347.66;;;21.00;100.00
4972;BME280;2501;51.214;6.768;2022-09-09T11:57:41;100347.94;;;20.93;100.00
4972;BME280;2501;51.214;6.768;2022-09-09T12:00:31;100348.59;;;21.06;100.00
4972;BME280;2501;51.214;6.768;2022-09-09T12:03:01;100360.22;;;21.17;100.00
4972;BME280;2501;51.214;6.768;2022-09-09T12:05:38;100359.09;;;21.14;100.00
4972;BME280;2501;51.214;6.768;2022-09-09T12:08:09;100374.31;;;21.35;100.00
4972;BME280;2501;51.214;6.768;2022-09-09T12:10:40;100361.63;;;21.21;100.00
4972;BME280;2501;51.214;6.768;2022-09-09T12:13:19;100352.25;;;21.34;100.00
4972;BME280;2501;51.214;6.768;2022-09-09T12:15:49;100352.06;;;21.92;100.00
4972;BME280;2501;51.214;6.768;2022-09-09T12:18:23;100358.19;;;21.54;100.00
4972;BME280;2501;51.214;6.768;2022-09-09T12:20:57;100353.00;;;22.07;100.00
4972;BME280;2501;51.214;6.768;2022-09-09T12:23:39;100350.19;;;21.98;100.00
4972;BME280;2501;51.214;6.768;2022-09-09T12:26:26;100344.31;;;22.29;100.00
4972;BME280;2501;51.214;6.768;2022-09-09T12:29:08;100346.06;;;22.26;100.00
4972;BME280;2501;51.214;6.768;2022-09-09T12:31:44;100354.44;;;21.75;100.00
4972;BME280;2501;51.214;6.768;2022-09-09T12:34:16;100356.13;;;21.82;100.00
4972;BME280;2501;51.214;6.768;2022-09-09T12:36:49;100345.69;;;21.91;100.00
4972;BME280;2501;51.214;6.768;2022-09-09T12:39:27;100354.13;;;21.55;100.00
4972;BME280;2501;51.214;6.768;2022-09-09T12:41:58;100350.81;;;21.56;100.00
4972;BME280;2501;51.214;6.768;2022-09-09T12:44:29;100355.69;;;21.74;100.00
4972;BME280;2501;51.214;6.768;2022-09-09T12:47:00;100343.97;;;21.48;100.00
4972;BME280;2501;51.214;6.768;2022-09-09T12:49:32;100345.03;;;21.69;100.00
4972;BME280;2501;51.214;6.768;2022-09-09T12:52:06;100336.09;;;21.89;100.00
4972;BME280;2501;51.214;6.768;2022-09-09T12:54:36;100328.28;;;22.35;100.00
4972;BME280;2501;51.214;6.768;2022-09-09T12:57:09;100333.72;;;22.05;100.00
4972;BME280;2501;51.214;6.768;2022-09-09T12:59:43;100326.06;;;22.48;100.00
4972;BME280;2501;51.214;6.768;2022-09-09T13:02:22;100328.72;;;22.00;100.00
4972;BME280;2501;51.214;6.768;2022-09-09T13:04:51;100340.16;;;21.97;100.00
4972;BME280;2501;51.214;6.768;2022-09-09T13:07:21;100326.25;;;21.75;100.00
4972;BME280;2501;51.214;6.768;2022-09-09T13:09:50;100338.78;;;21.83;100.00
4972;BME280;2501;51.214;6.768;2022-09-09T13:12:21;100330.94;;;21.69;100.00
4972;BME280;2501;51.214;6.768;2022-09-09T13:14:54;100331.59;;;21.55;100.00
4972;BME280;2501;51.214;6.768;2022-09-09T13:17:25;100326.88;;;21.70;100.00
4972;BME280;2501;51.214;6.768;2022-09-09T13:19:55;100332.06;;;21.72;100.00
4972;BME280;2501;51.214;6.768;2022-09-09T13:22:29;100335.00;;;21.77;100.00
4972;BME280;2501;51.214;6.768;2022-09-09T13:25:00;100324.00;;;22.48;100.00
4972;BME280;2501;51.214;6.768;2022-09-09T13:27:30;100336.22;;;22.12;100.00
4972;BME280;2501;51.214;6.768;2022-09-09T13:30:20;100328.00;;;21.63;100.00
4972;BME280;2501;51.214;6.768;2022-09-09T13:33:01;100325.75;;;21.86;100.00
4972;BME280;2501;51.214;6.768;2022-09-09T13:35:29;100315.91;;;22.41;100.00